createdAt,value
2018-06-20T00:01:11.384Z,80.30
2018-06-20T00:03:39.651Z,81.20
2018-06-20T00:06:07.891Z,81.50
2018-06-20T00:08:40.311Z,81.60
2018-06-20T00:13:36.520Z,81.90
2018-06-20T00:16:04.804Z,81.80
2018-06-20T00:18:33.007Z,82.10
2018-06-20T00:21:01.203Z,81.90
2018-06-20T00:23:29.447Z,82.80
2018-06-20T00:25:57.654Z,82.90
2018-06-20T00:28:25.863Z,82.70
2018-06-20T00:30:54.066Z,83.00
2018-06-20T00:33:22.274Z,82.90
2018-06-20T00:35:50.470Z,84.10
2018-06-20T00:38:18.780Z,83.60
2018-06-20T00:40:46.955Z,83.20
2018-06-20T00:45:43.115Z,83.50
2018-06-20T00:53:07.276Z,83.00
2018-06-20T00:55:46.868Z,84.30
2018-06-20T00:58:15.072Z,83.80
2018-06-20T01:03:11.220Z,84.90
2018-06-20T01:05:39.423Z,84.50
2018-06-20T01:08:07.631Z,86.90
2018-06-20T01:10:35.835Z,87.00
2018-06-20T01:13:04.046Z,86.60
2018-06-20T01:15:32.256Z,86.10
2018-06-20T01:18:00.455Z,85.90
2018-06-20T01:20:28.668Z,85.00
2018-06-20T01:22:56.870Z,86.30
2018-06-20T01:25:25.091Z,85.90
2018-06-20T01:27:53.317Z,85.70
2018-06-20T01:32:49.463Z,85.90
2018-06-20T01:37:45.636Z,84.50
2018-06-20T01:42:41.961Z,84.60
2018-06-20T01:45:10.186Z,85.00
2018-06-20T01:47:38.370Z,84.90
2018-06-20T01:50:06.612Z,85.40
2018-06-20T01:52:34.819Z,84.70
2018-06-20T01:55:03.024Z,86.10
2018-06-20T01:57:31.231Z,86.00
2018-06-20T01:59:59.415Z,86.00
2018-06-20T02:02:27.617Z,86.60
2018-06-20T02:07:23.775Z,89.80
2018-06-20T02:09:52.044Z,89.30
2018-06-20T02:14:48.261Z,90.50
2018-06-20T02:17:16.471Z,90.50
2018-06-20T02:19:44.693Z,90.60
2018-06-20T02:22:12.899Z,90.50
2018-06-20T02:24:41.188Z,91.00
2018-06-20T02:27:09.392Z,90.80
2018-06-20T02:29:37.588Z,91.10
2018-06-20T02:32:05.779Z,91.30
2018-06-20T02:34:33.983Z,91.40
2018-06-20T02:37:02.165Z,91.70
2018-06-20T02:39:30.383Z,91.70
2018-06-20T02:41:58.727Z,92.10
2018-06-20T02:44:26.928Z,92.20
2018-06-20T02:46:55.116Z,92.30
2018-06-20T02:49:23.325Z,92.40
2018-06-20T02:51:51.567Z,92.70
2018-06-20T02:54:19.892Z,92.80
2018-06-20T02:59:16.099Z,92.90
2018-06-20T03:01:44.375Z,93.00
2018-06-20T03:04:12.649Z,93.30
2018-06-20T03:06:40.907Z,93.50
2018-06-20T03:09:14.643Z,93.30
2018-06-20T03:11:43.686Z,93.60
2018-06-20T03:14:11.887Z,94.10
2018-06-20T03:16:40.111Z,94.50
2018-06-20T03:19:08.295Z,94.40
2018-06-20T03:21:36.554Z,94.90
2018-06-20T03:24:04.735Z,95.30
2018-06-20T03:26:33.072Z,95.40
2018-06-20T03:31:29.611Z,95.60
2018-06-20T03:33:57.926Z,95.70
2018-06-20T03:36:26.507Z,95.90
2018-06-20T03:41:22.668Z,95.50
2018-06-20T03:43:51.207Z,95.50
2018-06-20T03:46:19.512Z,95.50
2018-06-20T03:48:47.910Z,95.60
2018-06-20T03:58:40.032Z,95.40
2018-06-20T04:01:08.238Z,95.40
2018-06-20T04:03:36.431Z,95.50
2018-06-20T04:06:04.644Z,95.70
2018-06-20T04:08:32.863Z,95.40
2018-06-20T04:11:01.063Z,95.60
2018-06-20T04:13:29.395Z,95.50
2018-06-20T04:15:57.623Z,95.70
2018-06-20T04:18:35.262Z,95.40
2018-06-20T04:23:31.482Z,95.50
2018-06-20T04:25:59.679Z,95.80
2018-06-20T04:28:27.943Z,95.40
2018-06-20T04:30:56.145Z,95.40
2018-06-20T04:35:52.402Z,95.20
2018-06-20T04:38:20.588Z,95.50
2018-06-20T04:40:48.814Z,95.50
2018-06-20T04:43:17.027Z,95.50
2018-06-20T04:45:46.131Z,95.40
2018-06-20T04:48:14.365Z,95.20
2018-06-20T04:50:42.570Z,94.90
2018-06-20T04:53:10.825Z,94.70
2018-06-20T04:55:39.079Z,94.90
2018-06-20T04:58:07.367Z,94.70
2018-06-20T05:00:35.567Z,94.70
2018-06-20T05:03:03.828Z,94.20
2018-06-20T05:05:32.101Z,94.10
2018-06-20T05:10:28.322Z,94.20
2018-06-20T05:12:56.562Z,93.60
2018-06-20T05:15:24.922Z,94.10
2018-06-20T05:17:53.153Z,93.70
2018-06-20T05:20:21.352Z,93.60
2018-06-20T05:22:49.548Z,93.30
2018-06-20T05:27:45.729Z,93.00
2018-06-20T05:30:13.902Z,93.50
2018-06-20T05:32:42.117Z,93.30
2018-06-20T05:35:10.351Z,93.30
2018-06-20T05:40:06.714Z,91.90
2018-06-20T05:45:02.886Z,92.20
2018-06-20T05:47:31.178Z,91.90
2018-06-20T05:49:59.372Z,90.80
2018-06-20T05:52:27.580Z,90.50
2018-06-20T05:54:55.787Z,90.20
2018-06-20T05:57:23.976Z,90.00
2018-06-20T05:59:52.191Z,90.00
2018-06-20T06:02:20.402Z,88.00
2018-06-20T06:04:48.620Z,87.70
2018-06-20T06:07:16.835Z,86.30
2018-06-20T06:09:45.042Z,85.00
2018-06-20T06:12:13.239Z,86.70
2018-06-20T06:17:09.455Z,85.00
2018-06-20T06:19:37.625Z,84.20
2018-06-20T06:22:05.855Z,83.40
2018-06-20T06:24:34.039Z,83.20
2018-06-20T06:29:30.251Z,80.80
2018-06-20T06:31:58.468Z,79.10
2018-06-20T06:34:26.672Z,79.60
2018-06-20T06:36:54.953Z,77.50
2018-06-20T06:39:23.135Z,75.80
2018-06-20T06:41:51.403Z,74.90
2018-06-20T06:44:19.619Z,72.60
2018-06-20T06:46:47.831Z,72.40
2018-06-20T06:51:44.135Z,66.50
2018-06-20T06:54:12.360Z,63.30
2018-06-20T06:56:40.595Z,62.30
2018-06-20T06:59:08.787Z,60.70
2018-06-20T07:01:37.005Z,59.20
2018-06-20T07:04:05.207Z,56.30
2018-06-20T07:06:33.408Z,56.30
2018-06-20T07:09:01.595Z,53.20
2018-06-20T07:11:29.866Z,51.40
2018-06-20T07:13:58.060Z,51.50
2018-06-20T07:16:26.241Z,51.80
2018-06-20T07:18:54.568Z,50.50
2018-06-20T07:21:22.768Z,50.80
2018-06-20T07:23:51.003Z,48.70
2018-06-20T07:26:19.923Z,49.10
2018-06-20T07:31:16.065Z,45.50
2018-06-20T07:33:44.283Z,45.60
2018-06-20T07:36:12.628Z,44.80
2018-06-20T07:38:40.701Z,45.20
2018-06-20T07:41:08.935Z,47.40
2018-06-20T07:43:37.149Z,45.00
2018-06-20T07:46:05.520Z,42.50
2018-06-20T07:48:33.728Z,42.90
2018-06-20T07:51:02.011Z,41.00
2018-06-20T07:53:30.219Z,40.70
2018-06-20T07:58:31.672Z,37.60
2018-06-20T08:01:05.533Z,38.40
2018-06-20T08:03:39.228Z,39.10
2018-06-20T08:07:16.072Z,39.10
2018-06-20T08:09:49.613Z,36.10
2018-06-20T08:12:23.440Z,38.10
2018-06-20T08:14:56.987Z,37.10
2018-06-20T08:17:30.727Z,35.80
2018-06-20T08:20:00.574Z,36.20
2018-06-20T08:22:29.075Z,36.30
2018-06-20T08:25:01.963Z,36.20
2018-06-20T08:27:31.225Z,34.70
2018-06-20T08:30:00.556Z,35.60
2018-06-20T08:32:28.767Z,35.10
2018-06-20T08:34:56.964Z,34.50
2018-06-20T08:37:25.179Z,34.90
2018-06-20T08:39:53.391Z,34.20
2018-06-20T08:42:22.167Z,34.80
2018-06-20T08:44:50.364Z,33.50
2018-06-20T08:47:18.559Z,34.50
2018-06-20T08:49:46.756Z,37.00
2018-06-20T08:52:15.140Z,35.60
2018-06-20T08:54:43.354Z,34.50
2018-06-20T08:57:11.564Z,34.40
2018-06-20T09:02:07.897Z,32.10
2018-06-20T09:04:41.579Z,35.00
2018-06-20T09:07:15.368Z,38.10
2018-06-20T09:09:49.047Z,36.90
2018-06-20T09:12:22.623Z,38.90
2018-06-20T09:17:30.007Z,40.80
2018-06-20T09:19:59.856Z,41.50
2018-06-20T09:24:56.043Z,36.00
2018-06-20T09:27:24.230Z,37.40
2018-06-20T09:29:52.496Z,33.30
2018-06-20T09:32:20.771Z,32.60
2018-06-20T09:34:50.436Z,31.90
2018-06-20T09:37:18.715Z,30.30
2018-06-20T09:39:46.947Z,30.00
2018-06-20T09:42:15.226Z,28.00
2018-06-20T09:44:43.475Z,28.70
2018-06-20T09:47:11.636Z,26.90
2018-06-20T09:49:39.828Z,28.70
2018-06-20T09:52:08.064Z,26.70
2018-06-20T09:54:36.359Z,27.10
2018-06-20T09:57:04.547Z,26.30
2018-06-20T09:59:38.270Z,26.40
2018-06-20T10:04:45.396Z,25.70
2018-06-20T10:08:21.832Z,23.60
2018-06-20T10:10:55.555Z,25.40
2018-06-20T10:13:25.104Z,26.10
2018-06-20T10:15:53.327Z,28.30
2018-06-20T10:20:50.063Z,29.70
2018-06-20T10:23:18.252Z,28.80
2018-06-20T10:25:46.479Z,27.90
2018-06-20T10:28:14.691Z,26.40
2018-06-20T10:30:42.884Z,27.30
2018-06-20T10:33:11.112Z,27.00
2018-06-20T10:35:39.314Z,24.90
2018-06-20T10:38:07.568Z,25.20
2018-06-20T10:40:35.774Z,26.80
2018-06-20T10:43:04.004Z,26.30
2018-06-20T10:45:37.780Z,24.50
2018-06-20T10:48:11.328Z,24.50
2018-06-20T10:50:39.524Z,25.80
2018-06-20T10:53:07.729Z,28.80
2018-06-20T10:55:37.796Z,29.70
2018-06-20T11:00:45.877Z,30.40
2018-06-20T11:03:19.672Z,30.60
2018-06-20T11:06:57.504Z,28.50
2018-06-20T11:09:31.105Z,27.60
2018-06-20T11:12:04.639Z,25.70
2018-06-20T11:14:32.848Z,24.80
2018-06-20T11:17:01.076Z,25.40
2018-06-20T11:19:29.259Z,24.20
2018-06-20T11:21:57.512Z,22.00
2018-06-20T11:26:53.762Z,24.10
2018-06-20T11:29:22.027Z,27.10
2018-06-20T11:31:50.194Z,26.80
2018-06-20T11:34:18.374Z,26.90
2018-06-20T11:36:46.615Z,24.70
2018-06-20T11:39:14.876Z,25.70
2018-06-20T11:41:43.116Z,24.50
2018-06-20T11:44:11.332Z,23.70
2018-06-20T11:49:12.965Z,28.20
2018-06-20T11:51:43.288Z,29.20
2018-06-20T11:54:11.635Z,30.40
2018-06-20T11:56:40.170Z,32.20
2018-06-20T11:59:13.841Z,32.20
2018-06-20T12:04:20.963Z,30.20
2018-06-20T12:06:54.599Z,28.70
2018-06-20T12:09:28.189Z,29.50
2018-06-20T12:12:01.668Z,32.10
2018-06-20T12:14:35.331Z,28.20
2018-06-20T12:17:02.791Z,27.60
2018-06-20T12:19:36.259Z,26.60
2018-06-20T12:22:09.929Z,25.80
2018-06-20T12:24:43.431Z,24.60
2018-06-20T12:27:17.081Z,24.60
2018-06-20T12:29:50.428Z,22.70
2018-06-20T12:32:23.922Z,24.40
2018-06-20T12:34:57.526Z,24.20
2018-06-20T12:37:31.050Z,24.20
2018-06-20T12:40:04.264Z,23.60
2018-06-20T12:42:37.806Z,22.30
2018-06-20T12:45:07.599Z,23.10
2018-06-20T12:50:14.915Z,23.60
2018-06-20T12:55:11.123Z,24.40
2018-06-20T12:57:39.559Z,25.00
2018-06-20T13:02:35.767Z,27.40
2018-06-20T13:05:04.002Z,27.50
2018-06-20T13:07:32.207Z,30.70
2018-06-20T13:10:00.519Z,31.40
2018-06-20T13:12:28.719Z,31.50
2018-06-20T13:14:56.947Z,33.10
2018-06-20T13:17:25.171Z,33.30
2018-06-20T13:19:53.407Z,36.20
2018-06-20T13:22:21.664Z,36.50
2018-06-20T13:24:49.914Z,35.70
2018-06-20T13:29:57.057Z,38.00
2018-06-20T13:32:30.922Z,39.00
2018-06-20T13:35:04.460Z,38.30
2018-06-20T13:37:37.972Z,40.00
2018-06-20T13:40:11.560Z,38.40
2018-06-20T13:42:45.296Z,39.00
2018-06-20T13:45:18.995Z,37.80
2018-06-20T13:47:52.714Z,39.40
2018-06-20T13:50:20.943Z,39.40
2018-06-20T13:55:17.365Z,41.80
2018-06-20T13:57:45.672Z,40.60
2018-06-20T14:02:41.810Z,42.00
2018-06-20T14:05:10.031Z,41.50
2018-06-20T14:07:38.287Z,41.50
2018-06-20T14:15:02.564Z,42.00
2018-06-20T14:17:30.771Z,41.30
2018-06-20T14:20:04.223Z,40.80
2018-06-20T14:22:32.430Z,41.70
2018-06-20T14:25:00.631Z,42.50
2018-06-20T14:27:28.857Z,44.40
2018-06-20T14:29:57.106Z,42.10
2018-06-20T14:32:30.611Z,43.70
2018-06-20T14:35:04.326Z,43.30
2018-06-20T14:37:38.054Z,41.20
2018-06-20T14:40:11.783Z,41.60
2018-06-20T14:42:45.459Z,43.50
2018-06-20T14:46:17.789Z,44.60
2018-06-20T14:48:46.904Z,42.60
2018-06-20T14:51:15.410Z,43.60
2018-06-20T14:53:44.290Z,42.00
2018-06-20T14:56:12.551Z,44.30
2018-06-20T14:58:41.047Z,44.30
2018-06-20T15:03:37.299Z,43.30
2018-06-20T15:06:05.598Z,41.40
2018-06-20T15:08:33.841Z,42.70
2018-06-20T15:11:02.096Z,44.60
2018-06-20T15:13:30.299Z,42.20
2018-06-20T15:17:01.972Z,42.20
2018-06-20T15:19:30.211Z,42.80
2018-06-20T15:21:58.433Z,42.90
2018-06-20T15:24:26.753Z,44.40
2018-06-20T15:27:00.267Z,45.00
2018-06-20T15:29:33.809Z,43.50
2018-06-20T15:32:07.533Z,45.00
2018-06-20T15:34:41.340Z,45.90
2018-06-20T15:37:15.117Z,44.80
2018-06-20T15:39:43.387Z,45.00
2018-06-20T15:44:39.775Z,45.00
2018-06-20T15:47:07.968Z,45.10
2018-06-20T15:49:36.246Z,43.20
2018-06-20T15:52:04.465Z,44.00
2018-06-20T15:57:00.709Z,44.40
2018-06-20T16:01:57.628Z,43.50
2018-06-20T16:04:25.847Z,43.90
2018-06-20T16:06:54.127Z,44.90
2018-06-20T16:09:27.692Z,45.10
2018-06-20T16:11:56.023Z,45.70
2018-06-20T16:14:24.268Z,44.70
2018-06-20T16:16:52.611Z,45.00
2018-06-20T16:19:26.119Z,44.30
2018-06-20T16:21:59.871Z,46.40
2018-06-20T16:24:33.551Z,43.80
2018-06-20T16:27:08.320Z,45.20
2018-06-20T16:29:42.088Z,44.60
2018-06-20T16:32:10.602Z,44.00
2018-06-20T16:34:38.838Z,44.80
2018-06-20T16:37:07.040Z,47.40
2018-06-20T16:39:35.390Z,45.50
2018-06-20T16:42:03.672Z,43.60
2018-06-20T16:44:31.948Z,46.00
2018-06-20T16:49:28.396Z,44.00
2018-06-20T16:51:56.644Z,46.20
2018-06-20T16:54:24.939Z,43.50
2018-06-20T17:04:23.595Z,45.90
2018-06-20T17:06:51.804Z,45.40
2018-06-20T17:11:53.319Z,47.80
2018-06-20T17:14:26.708Z,46.70
2018-06-20T17:17:00.239Z,47.00
2018-06-20T17:19:33.791Z,46.10
2018-06-20T17:22:07.501Z,47.10
2018-06-20T17:24:41.353Z,45.80
2018-06-20T17:27:09.522Z,47.10
2018-06-20T17:29:37.743Z,49.80
2018-06-20T17:37:01.949Z,48.60
2018-06-20T17:39:30.177Z,47.90
2018-06-20T17:41:58.391Z,47.70
2018-06-20T17:44:26.582Z,45.20
2018-06-20T17:46:54.871Z,47.30
2018-06-20T17:49:23.100Z,46.50
2018-06-20T17:51:51.316Z,47.50
2018-06-20T17:54:19.526Z,47.90
2018-06-20T17:59:15.694Z,47.10
2018-06-20T18:04:16.411Z,46.60
2018-06-20T18:06:50.094Z,48.60
2018-06-20T18:09:23.792Z,48.40
2018-06-20T18:11:57.411Z,48.80
2018-06-20T18:14:31.055Z,49.20
2018-06-20T18:19:28.860Z,50.70
2018-06-20T18:21:57.106Z,49.90
2018-06-20T18:24:25.823Z,47.40
2018-06-20T18:29:22.311Z,48.30
2018-06-20T18:31:50.537Z,48.60
2018-06-20T18:34:18.731Z,50.20
2018-06-20T18:39:14.975Z,49.40
2018-06-20T18:41:43.356Z,51.00
2018-06-20T18:44:11.563Z,49.70
2018-06-20T18:51:35.676Z,50.30
2018-06-20T18:54:03.923Z,50.10
2018-06-20T18:56:32.119Z,50.80
2018-06-20T18:59:05.682Z,50.30
2018-06-20T19:01:39.525Z,51.10
2018-06-20T19:04:13.299Z,50.60
2018-06-20T19:06:47.046Z,50.80
2018-06-20T19:09:18.639Z,51.50
2018-06-20T19:11:47.119Z,51.60
2018-06-20T19:16:43.344Z,52.10
2018-06-20T19:19:11.539Z,52.60
2018-06-20T19:26:35.722Z,52.60
2018-06-20T19:29:03.917Z,53.00
2018-06-20T19:31:32.125Z,53.20
2018-06-20T19:34:00.403Z,53.70
2018-06-20T19:36:28.785Z,54.00
2018-06-20T19:38:57.007Z,54.20
2018-06-20T19:41:25.203Z,54.30
2018-06-20T19:43:58.847Z,54.70
2018-06-20T19:46:27.050Z,54.70
2018-06-20T19:48:55.388Z,54.60
2018-06-20T19:51:23.585Z,54.80
2018-06-20T19:53:51.776Z,54.80
2018-06-20T19:56:19.992Z,55.20
2018-06-20T19:58:48.457Z,55.80
2018-06-20T20:01:16.668Z,55.60
2018-06-20T20:03:44.908Z,55.90
2018-06-20T20:06:13.160Z,56.20
2018-06-20T20:08:41.436Z,55.90
2018-06-20T20:11:09.633Z,56.40
2018-06-20T20:13:37.909Z,57.40
2018-06-20T20:16:06.123Z,57.90
2018-06-20T20:18:34.355Z,57.60
2018-06-20T20:21:02.554Z,58.10
2018-06-20T20:23:30.799Z,59.40
2018-06-20T20:25:59.008Z,58.90
2018-06-20T20:28:27.255Z,59.10
2018-06-20T20:30:55.547Z,59.40
2018-06-20T20:33:23.842Z,60.10
2018-06-20T20:35:52.078Z,60.50
2018-06-20T20:38:20.272Z,60.80
2018-06-20T20:40:48.507Z,60.90
2018-06-20T20:43:16.851Z,61.20
2018-06-20T20:45:45.139Z,61.30
2018-06-20T20:48:13.367Z,61.40
2018-06-20T20:53:10.091Z,61.70
2018-06-20T20:55:38.312Z,61.70
2018-06-20T20:58:06.564Z,61.50
2018-06-20T21:00:34.884Z,61.90
2018-06-20T21:03:03.033Z,62.30
2018-06-20T21:05:31.351Z,63.30
2018-06-20T21:07:59.558Z,63.10
2018-06-20T21:10:27.895Z,63.70
2018-06-20T21:12:56.120Z,64.90
2018-06-20T21:15:24.324Z,63.60
2018-06-20T21:17:52.570Z,63.80
2018-06-20T21:20:20.775Z,64.10
2018-06-20T21:22:49.023Z,64.00
2018-06-20T21:25:17.270Z,64.20
2018-06-20T21:30:13.515Z,65.40
2018-06-20T21:32:41.742Z,64.40
2018-06-20T21:35:09.999Z,65.00
2018-06-20T21:37:38.216Z,65.40
2018-06-20T21:40:09.826Z,66.20
2018-06-20T21:42:38.114Z,66.80
2018-06-20T21:47:34.961Z,66.70
2018-06-20T21:52:31.331Z,68.50
2018-06-20T21:59:55.841Z,68.90
2018-06-20T22:02:24.892Z,68.70
2018-06-20T22:04:53.260Z,69.90
2018-06-20T22:07:21.490Z,70.00
2018-06-20T22:09:49.740Z,70.50
2018-06-20T22:12:18.048Z,70.20
2018-06-20T22:14:46.264Z,70.70
2018-06-20T22:17:14.474Z,71.00
2018-06-20T22:19:42.737Z,72.10
2018-06-20T22:24:38.955Z,73.70
2018-06-20T22:27:07.182Z,73.40
2018-06-20T22:29:36.353Z,73.30
2018-06-20T22:32:04.626Z,73.70
2018-06-20T22:34:32.811Z,73.30
2018-06-20T22:39:29.044Z,76.00
2018-06-20T22:41:57.233Z,76.10
2018-06-20T22:44:25.474Z,76.30
2018-06-20T22:46:53.899Z,76.40
2018-06-20T22:49:22.136Z,76.20
2018-06-20T22:51:50.419Z,76.20
2018-06-20T22:54:18.619Z,76.90
2018-06-20T22:56:46.812Z,78.80
2018-06-20T22:59:15.060Z,78.90
2018-06-20T23:01:43.376Z,80.30
2018-06-20T23:04:11.616Z,81.50
2018-06-20T23:06:39.803Z,83.00
2018-06-20T23:09:09.278Z,80.80
2018-06-20T23:11:46.534Z,79.80
2018-06-20T23:14:14.987Z,79.70
2018-06-20T23:16:43.536Z,80.30
2018-06-20T23:21:40.734Z,81.40
2018-06-20T23:24:09.041Z,81.00
2018-06-20T23:26:37.339Z,81.20
2018-06-20T23:29:05.545Z,81.50
2018-06-20T23:31:33.830Z,82.90
2018-06-20T23:38:57.981Z,81.50
2018-06-20T23:41:26.176Z,81.70
2018-06-20T23:43:54.379Z,82.20
2018-06-20T23:46:22.572Z,81.80
2018-06-20T23:48:50.775Z,82.90
2018-06-20T23:51:19.015Z,82.80
2018-06-20T23:53:47.231Z,83.10
2018-06-20T23:58:43.367Z,84.50
